Time;durP1;ratioP1;P1;durP2;ratioP2;P2;SDS_P1;SDS_P2;PMS_P1;PMS_P2;Temp;Humidity;BMP_temperature;BMP_pressure;BME280_temperature;BME280_humidity;BME280_pressure;Samples;Min_cycle;Max_cycle;Signal;HPM_P1;HPM_P2
2023/01/31 05:37:49;;;;;;;5.53;3.45;;;21.90;64.90;;;;;;6200995;28;93570;-94
2023/01/31 05:40:51;;;;;;;5.50;3.33;;;22.00;65.20;;;;;;6195258;28;93882;-94
2023/01/31 05:43:54;;;;;;;4.97;3.38;;;22.00;65.10;;;;;;6212660;28;94222;-96
2023/01/31 05:46:56;;;;;;;4.72;3.45;;;22.00;65.20;;;;;;6191707;28;93967;-96
2023/01/31 05:49:58;;;;;;;5.20;3.72;;;22.00;65.20;;;;;;6213663;28;94392;-96
2023/01/31 05:53:02;;;;;;;4.05;3.50;;;22.10;65.30;;;;;;6202191;28;95521;-96
2023/01/31 05:56:05;;;;;;;5.10;3.58;;;22.10;65.40;;;;;;6198068;28;94167;-96
2023/01/31 05:59:08;;;;;;;4.65;3.45;;;22.10;65.60;;;;;;6185086;28;93881;-96
2023/01/31 06:02:10;;;;;;;5.13;3.60;;;22.10;65.90;;;;;;6190518;28;94412;-96
2023/01/31 06:05:13;;;;;;;5.20;3.47;;;22.10;66.00;;;;;;6200349;28;93964;-96
2023/01/31 06:08:17;;;;;;;4.75;3.38;;;22.10;66.30;;;;;;6208680;28;92182;-96
2023/01/31 06:11:19;;;;;;;4.47;3.17;;;22.20;66.30;;;;;;6208192;28;93577;-95
2023/01/31 06:14:21;;;;;;;5.78;3.17;;;22.20;66.40;;;;;;6211223;28;93755;-95
2023/01/31 06:17:24;;;;;;;7.25;3.67;;;22.20;66.40;;;;;;6212181;28;93893;-96
2023/01/31 06:20:27;;;;;;;4.97;3.70;;;22.20;66.70;;;;;;6199812;28;94386;-96
2023/01/31 06:23:30;;;;;;;4.00;3.60;;;22.20;66.70;;;;;;6198268;28;93999;-96
2023/01/31 06:26:33;;;;;;;4.28;3.70;;;22.20;66.60;;;;;;6205521;28;94151;-96
2023/01/31 06:29:35;;;;;;;6.55;3.67;;;22.20;67.40;;;;;;6203224;28;93365;-96
2023/01/31 06:32:37;;;;;;;5.43;3.50;;;22.10;66.40;;;;;;6189911;28;92748;-95
2023/01/31 06:35:39;;;;;;;4.47;3.58;;;22.20;66.50;;;;;;6193783;28;96053;-96
2023/01/31 06:38:43;;;;;;;4.65;3.58;;;22.20;66.50;;;;;;6176449;28;94474;-96
2023/01/31 06:41:45;;;;;;;5.50;3.40;;;22.20;66.60;;;;;;6166201;28;94310;-96
2023/01/31 06:44:48;;;;;;;9.07;3.95;;;22.20;66.60;;;;;;6174430;28;93783;-95
2023/01/31 06:47:50;;;;;;;6.03;3.60;;;22.20;66.50;;;;;;6183592;28;94476;-95
2023/01/31 06:50:53;;;;;;;13.63;6.15;;;22.20;66.70;;;;;;6185747;28;94086;-96
2023/01/31 06:53:57;;;;;;;24.80;11.10;;;22.20;66.80;;;;;;6176189;28;94231;-96
2023/01/31 06:56:59;;;;;;;25.20;12.38;;;22.20;66.70;;;;;;6178177;28;93676;-96
2023/01/31 07:00:01;;;;;;;38.47;17.17;;;22.20;67.60;;;;;;6179933;28;93874;-94
2023/01/31 07:03:03;;;;;;;509.75;264.15;;;22.30;68.80;;;;;;6157101;28;94448;-96
2023/01/31 07:06:06;;;;;;;116.25;58.70;;;22.30;79.90;;;;;;6179579;28;92924;-96
2023/01/31 07:09:10;;;;;;;81.18;40.80;;;22.40;90.10;;;;;;6183211;28;93183;-96
2023/01/31 07:12:13;;;;;;;72.68;36.35;;;22.50;81.60;;;;;;6178683;28;94321;-95
2023/01/31 07:15:15;;;;;;;67.35;33.88;;;22.50;76.40;;;;;;6193646;28;93784;-95
2023/01/31 07:18:17;;;;;;;61.13;30.15;;;22.50;81.40;;;;;;6181267;28;94262;-95
2023/01/31 07:21:20;;;;;;;54.17;27.55;;;22.60;74.50;;;;;;6183536;28;94245;-96
2023/01/31 07:24:23;;;;;;;55.58;27.17;;;22.60;75.50;;;;;;6182626;28;95434;-95
2023/01/31 07:27:26;;;;;;;56.53;25.77;;;22.60;74.40;;;;;;6183624;28;94523;-95
2023/01/31 07:30:29;;;;;;;48.03;25.88;;;22.70;74.50;;;;;;6164699;28;94234;-95
2023/01/31 07:33:31;;;;;;;42.45;23.73;;;22.70;73.50;;;;;;6183763;28;93881;-94
2023/01/31 07:36:33;;;;;;;48.90;23.65;;;22.70;72.00;;;;;;6186934;28;94127;-94
2023/01/31 07:39:36;;;;;;;40.78;18.00;;;22.70;74.00;;;;;;6207771;28;94488;-93
2023/01/31 07:42:39;;;;;;;33.75;17.42;;;22.70;73.80;;;;;;6207808;28;94276;-94
2023/01/31 07:45:41;;;;;;;26.73;15.13;;;22.80;74.90;;;;;;6208098;28;92205;-94
2023/01/31 07:48:44;;;;;;;29.45;14.98;;;22.70;70.10;;;;;;6207790;28;94568;-94
2023/01/31 07:51:46;;;;;;;28.25;14.32;;;22.70;68.60;;;;;;6207032;28;93886;-94
2023/01/31 07:54:49;;;;;;;29.48;14.65;;;22.70;72.80;;;;;;6207036;28;93994;-95
2023/01/31 07:57:51;;;;;;;32.70;14.75;;;22.70;70.00;;;;;;6206839;28;94302;-94
2023/01/31 08:04:15;;;;;;;27.30;13.73;;;22.80;72.70;;;;;;6206922;28;92086;-95
2023/01/31 08:07:17;;;;;;;24.35;13.23;;;22.90;71.30;;;;;;6207105;28;94079;-95
2023/01/31 08:10:21;;;;;;;25.98;13.60;;;22.90;71.60;;;;;;6206572;28;94079;-94
2023/01/31 08:13:26;;;;;;;23.02;12.95;;;23.00;72.80;;;;;;6205916;28;94424;-95
2023/01/31 08:16:30;;;;;;;26.58;14.13;;;23.10;73.80;;;;;;6206662;28;92532;-94
2023/01/31 08:19:33;;;;;;;24.63;13.15;;;23.10;75.50;;;;;;6205532;28;94184;-95
2023/01/31 08:22:35;;;;;;;27.08;12.65;;;23.30;86.40;;;;;;6206879;28;96212;-96
2023/01/31 08:25:38;;;;;;;27.55;12.43;;;23.30;83.50;;;;;;6206098;28;95211;-95
2023/01/31 08:28:44;;;;;;;21.88;11.90;;;23.40;79.60;;;;;;6206952;28;95050;-96
2023/01/31 08:31:46;;;;;;;26.98;12.57;;;23.50;76.70;;;;;;6207181;28;93951;-96
2023/01/31 08:34:51;;;;;;;22.63;11.50;;;23.50;76.20;;;;;;6205781;28;95222;-96
2023/01/31 08:37:53;;;;;;;18.60;10.43;;;23.50;73.90;;;;;;6206323;28;94289;-96
2023/01/31 08:40:58;;;;;;;19.50;11.35;;;23.50;72.50;;;;;;6205427;28;94470;-96
2023/01/31 08:44:03;;;;;;;19.48;10.70;;;23.50;71.60;;;;;;6205109;28;94298;-96
2023/01/31 08:47:05;;;;;;;18.45;10.13;;;23.40;71.10;;;;;;6206469;28;93714;-96
2023/01/31 08:50:12;;;;;;;20.05;10.45;;;23.40;71.00;;;;;;6205969;28;94205;-96
2023/01/31 08:53:14;;;;;;;18.05;9.88;;;23.40;70.80;;;;;;6205430;28;93167;-96
2023/01/31 08:56:20;;;;;;;19.15;9.52;;;23.40;70.50;;;;;;6205908;28;95140;-96
2023/01/31 08:59:22;;;;;;;23.30;9.63;;;23.30;70.10;;;;;;6208659;28;93272;-96
2023/01/31 09:02:24;;;;;;;16.23;9.32;;;23.20;70.10;;;;;;6209618;28;92879;-96
2023/01/31 09:05:28;;;;;;;17.88;9.57;;;23.20;70.20;;;;;;6212592;28;92932;-96
2023/01/31 09:08:31;;;;;;;18.23;9.85;;;23.20;70.10;;;;;;6211935;28;93396;-96
2023/01/31 09:11:34;;;;;;;15.40;8.73;;;23.20;70.20;;;;;;6213218;28;93558;-96
2023/01/31 09:14:37;;;;;;;16.25;8.77;;;23.10;70.20;;;;;;6214647;28;93259;-96
2023/01/31 09:17:43;;;;;;;15.75;8.48;;;23.10;70.10;;;;;;6215069;28;94439;-96
2023/01/31 09:20:45;;;;;;;17.00;8.40;;;23.10;70.10;;;;;;6211661;28;94334;-96
2023/01/31 09:23:48;;;;;;;13.57;8.18;;;23.10;70.40;;;;;;6211608;28;93936;-96
2023/01/31 09:26:53;;;;;;;15.00;8.05;;;23.10;70.30;;;;;;6210858;28;93666;-96
2023/01/31 09:29:57;;;;;;;13.60;7.93;;;23.10;70.20;;;;;;6212180;28;94843;-96
2023/01/31 09:33:00;;;;;;;14.15;8.52;;;23.10;70.10;;;;;;6212202;28;93508;-96
2023/01/31 09:36:05;;;;;;;10.75;7.03;;;23.10;70.00;;;;;;6213959;28;92626;-96
2023/01/31 09:39:07;;;;;;;13.18;7.68;;;23.10;70.00;;;;;;6211524;28;94377;-96
2023/01/31 09:42:20;;;;;;;14.50;7.53;;;23.10;70.00;;;;;;6210809;28;94691;-96
2023/01/31 09:45:29;;;;;;;10.77;6.78;;;23.10;69.90;;;;;;6210150;28;92857;-96
2023/01/31 09:48:35;;;;;;;12.10;6.82;;;23.10;69.60;;;;;;6211177;28;93158;-96
2023/01/31 09:51:39;;;;;;;12.02;7.03;;;23.10;69.60;;;;;;6210183;28;93952;-96
2023/01/31 09:54:42;;;;;;;10.77;6.53;;;23.10;69.60;;;;;;6210596;28;94184;-96
2023/01/31 09:57:57;;;;;;;11.70;6.68;;;23.10;69.40;;;;;;6209724;28;94459;-96
2023/01/31 10:01:09;;;;;;;11.00;6.35;;;23.10;69.50;;;;;;6208569;28;93790;-96
2023/01/31 10:04:32;;;;;;;14.32;6.65;;;23.10;69.60;;;;;;6210591;28;93341;-96
2023/01/31 10:07:41;;;;;;;12.50;6.53;;;23.10;69.60;;;;;;6209934;28;94364;-96
2023/01/31 10:10:50;;;;;;;12.52;6.25;;;23.20;69.70;;;;;;6210276;28;93371;-96
2023/01/31 10:13:58;;;;;;;12.25;6.07;;;23.10;69.90;;;;;;6209174;28;94381;-96
2023/01/31 10:17:10;;;;;;;10.43;5.45;;;23.10;69.80;;;;;;6209240;28;94312;-96
2023/01/31 10:20:20;;;;;;;10.93;5.65;;;23.10;69.70;;;;;;6209721;28;92580;-96
2023/01/31 10:23:29;;;;;;;8.98;5.30;;;23.10;69.60;;;;;;6209215;28;93539;-96
2023/01/31 10:26:33;;;;;;;11.18;6.30;;;23.20;69.50;;;;;;6209132;28;92942;-96
2023/01/31 10:29:43;;;;;;;9.18;5.55;;;23.10;69.30;;;;;;6208522;28;94070;-96
2023/01/31 10:32:50;;;;;;;8.25;5.10;;;23.10;69.10;;;;;;6209150;28;94727;-96
2023/01/31 10:35:57;;;;;;;8.68;5.63;;;23.10;68.90;;;;;;6209019;28;93514;-96
2023/01/31 10:39:08;;;;;;;8.80;5.18;;;23.10;68.80;;;;;;6209007;28;94161;-96
2023/01/31 10:42:23;;;;;;;9.20;5.00;;;23.10;68.70;;;;;;6209225;28;92523;-96
2023/01/31 10:45:29;;;;;;;9.55;4.82;;;23.10;68.60;;;;;;6208397;28;93992;-96
2023/01/31 10:48:31;;;;;;;7.35;4.72;;;23.10;68.40;;;;;;6209880;28;93183;-96
2023/01/31 10:51:49;;;;;;;7.68;4.50;;;23.10;68.40;;;;;;6209563;28;93971;-96
2023/01/31 10:55:02;;;;;;;8.23;4.47;;;23.10;68.30;;;;;;6208860;28;94611;-96
2023/01/31 10:58:05;;;;;;;8.57;4.53;;;23.10;68.10;;;;;;6209690;28;93457;-96
2023/01/31 11:01:10;;;;;;;7.72;4.57;;;23.10;68.10;;;;;;6208108;28;94017;-96
2023/01/31 11:04:28;;;;;;;7.45;4.18;;;23.10;67.90;;;;;;6209895;28;95683;-96
2023/01/31 11:07:34;;;;;;;9.25;4.53;;;23.10;67.90;;;;;;6208422;28;93282;-96
2023/01/31 11:10:51;;;;;;;6.40;4.05;;;23.10;67.80;;;;;;6208605;28;93440;-96
2023/01/31 11:13:59;;;;;;;7.68;4.43;;;23.10;67.60;;;;;;6209557;28;92039;-96
2023/01/31 11:17:06;;;;;;;9.57;4.70;;;23.10;67.60;;;;;;6208143;28;92177;-96
2023/01/31 11:20:24;;;;;;;8.00;4.13;;;23.10;67.50;;;;;;6207033;28;94169;-96
2023/01/31 11:23:31;;;;;;;9.40;4.15;;;23.10;67.50;;;;;;6212246;28;91937;-96
2023/01/31 11:26:38;;;;;;;13.05;4.28;;;23.10;67.60;;;;;;6207195;28;93028;-96
2023/01/31 11:29:48;;;;;;;10.75;5.45;;;23.10;68.00;;;;;;6210177;28;94497;-96
2023/01/31 11:32:55;;;;;;;9.93;5.43;;;23.10;70.50;;;;;;6207426;28;94685;-96
2023/01/31 11:35:57;;;;;;;10.05;5.47;;;23.10;73.60;;;;;;6208615;28;94572;-96
2023/01/31 11:39:18;;;;;;;11.82;5.47;;;23.30;74.70;;;;;;6208958;28;93456;-96
2023/01/31 11:42:20;;;;;;;11.60;5.63;;;23.40;73.50;;;;;;6207318;28;94224;-96
2023/01/31 11:45:26;;;;;;;8.95;4.60;;;23.40;74.30;;;;;;6208235;28;92862;-96
2023/01/31 11:48:45;;;;;;;7.38;4.57;;;23.50;71.80;;;;;;6207714;28;92394;-96
2023/01/31 11:51:49;;;;;;;10.70;4.07;;;23.40;71.40;;;;;;6207514;28;94692;-96
2023/01/31 11:54:56;;;;;;;7.57;3.80;;;23.50;72.10;;;;;;6209183;28;91642;-96
2023/01/31 11:58:00;;;;;;;10.90;4.07;;;23.40;71.30;;;;;;6207746;28;94394;-96
2023/01/31 12:01:08;;;;;;;7.28;3.55;;;23.40;71.10;;;;;;6207549;28;93950;-96
2023/01/31 12:04:18;;;;;;;6.55;3.70;;;23.40;70.90;;;;;;6207000;28;94933;-96
2023/01/31 12:07:23;;;;;;;6.18;3.67;;;23.40;70.70;;;;;;6208226;28;94283;-96
2023/01/31 12:10:35;;;;;;;7.05;3.55;;;23.40;70.70;;;;;;6207284;28;92992;-96
2023/01/31 12:13:47;;;;;;;8.20;3.83;;;23.40;71.80;;;;;;6207702;28;93617;-96
2023/01/31 12:16:53;;;;;;;7.03;3.90;;;23.40;72.10;;;;;;6207554;28;93202;-96
2023/01/31 12:20:14;;;;;;;6.13;3.10;;;23.30;72.30;;;;;;6207135;28;93171;-96
2023/01/31 12:23:32;;;;;;;6.28;3.53;;;23.30;72.50;;;;;;6207509;28;93332;-96
2023/01/31 12:26:42;;;;;;;6.40;3.28;;;23.40;72.80;;;;;;6208166;28;93364;-96
2023/01/31 12:30:15;;;;;;;7.15;3.30;;;23.30;73.00;;;;;;6207275;28;94222;-96
2023/01/31 12:33:35;;;;;;;6.07;3.13;;;23.40;73.30;;;;;;6206858;28;94646;-96
2023/01/31 12:36:52;;;;;;;6.78;3.35;;;23.40;73.50;;;;;;6206365;28;94439;-96
2023/01/31 12:40:10;;;;;;;6.15;3.00;;;23.30;73.60;;;;;;6211952;28;92181;-96
2023/01/31 12:43:24;;;;;;;5.93;3.00;;;23.30;73.70;;;;;;6212128;28;92308;-96
2023/01/31 12:46:36;;;;;;;4.65;3.03;;;23.30;73.90;;;;;;6211592;28;93336;-96
2023/01/31 12:49:57;;;;;;;5.53;3.08;;;23.40;74.10;;;;;;6211210;28;93213;-96
2023/01/31 12:53:22;;;;;;;6.60;3.00;;;23.40;74.20;;;;;;6211434;28;94464;-96
2023/01/31 12:56:47;;;;;;;5.28;2.97;;;23.40;74.40;;;;;;6210907;28;92884;-96
2023/01/31 12:59:55;;;;;;;5.30;2.80;;;23.40;74.40;;;;;;6212247;28;91402;-96
2023/01/31 13:03:16;;;;;;;4.75;2.75;;;23.40;74.50;;;;;;6211302;28;93485;-96
2023/01/31 13:06:23;;;;;;;3.97;2.65;;;23.40;74.60;;;;;;6211567;28;93558;-96
2023/01/31 13:09:30;;;;;;;6.20;2.83;;;23.40;74.70;;;;;;6211336;28;93034;-96
2023/01/31 13:12:35;;;;;;;5.97;2.70;;;23.40;74.90;;;;;;6211526;28;94317;-96
2023/01/31 13:15:44;;;;;;;3.63;2.67;;;23.40;74.80;;;;;;6211092;28;93358;-96
2023/01/31 13:18:48;;;;;;;4.88;2.60;;;23.40;75.20;;;;;;6211875;28;93190;-96
2023/01/31 13:21:57;;;;;;;5.40;2.60;;;23.40;75.00;;;;;;6211249;28;94590;-96
2023/01/31 13:25:16;;;;;;;4.40;2.50;;;23.40;75.20;;;;;;6211682;28;93172;-96
2023/01/31 13:28:21;;;;;;;4.18;2.60;;;23.40;75.20;;;;;;6210835;28;94890;-96
2023/01/31 13:31:29;;;;;;;5.55;2.50;;;23.40;75.20;;;;;;6212141;28;92659;-96
2023/01/31 13:34:39;;;;;;;4.80;2.35;;;23.40;75.20;;;;;;6210820;28;93132;-96
2023/01/31 13:37:44;;;;;;;4.85;2.50;;;23.40;75.20;;;;;;6210385;28;94644;-96
2023/01/31 13:40:51;;;;;;;3.80;2.45;;;23.40;75.30;;;;;;6210620;28;95131;-96
2023/01/31 13:43:54;;;;;;;5.05;2.58;;;23.40;75.30;;;;;;6211708;28;94467;-96
2023/01/31 13:47:02;;;;;;;4.15;2.30;;;23.40;75.30;;;;;;6210535;28;94431;-96
2023/01/31 13:50:11;;;;;;;3.35;2.20;;;23.40;75.20;;;;;;6209964;28;92884;-96
2023/01/31 13:53:17;;;;;;;3.28;2.10;;;23.40;75.30;;;;;;6210848;28;94808;-96
2023/01/31 13:56:27;;;;;;;3.45;2.20;;;23.40;75.10;;;;;;6210326;28;92103;-96
2023/01/31 13:59:32;;;;;;;4.20;2.47;;;23.40;75.20;;;;;;6210109;28;94705;-96
2023/01/31 14:02:37;;;;;;;3.17;2.10;;;23.40;75.20;;;;;;6210111;28;93418;-96
2023/01/31 14:05:57;;;;;;;3.70;2.28;;;23.40;75.20;;;;;;6210325;28;94554;-96
2023/01/31 14:09:00;;;;;;;3.85;2.03;;;23.40;75.30;;;;;;6191032;28;93441;-96
2023/01/31 14:12:32;;;;;;;3.30;2.05;;;23.40;75.30;;;;;;6209658;28;93973;-96
2023/01/31 14:15:49;;;;;;;4.03;2.10;;;23.40;75.30;;;;;;6209693;28;93307;-96
2023/01/31 14:18:51;;;;;;;2.92;1.90;;;23.40;75.30;;;;;;6210117;28;93926;-96
2023/01/31 14:21:56;;;;;;;2.83;2.00;;;23.40;75.30;;;;;;6210587;28;93643;-96
2023/01/31 14:25:02;;;;;;;2.72;1.92;;;23.40;75.20;;;;;;6210220;28;93057;-96
2023/01/31 14:28:10;;;;;;;2.97;1.92;;;23.40;75.20;;;;;;6209533;28;92986;-96
2023/01/31 14:31:13;;;;;;;3.67;2.00;;;23.40;75.10;;;;;;6210035;28;93391;-96
2023/01/31 14:34:17;;;;;;;6.15;2.28;;;23.40;75.20;;;;;;6211062;28;91357;-96
2023/01/31 14:46:21;;;;;;;5.10;2.03;;;23.40;74.40;;;;;;6206313;28;93279;-96
2023/01/31 14:49:58;;;;;;;3.45;1.95;;;23.40;74.20;;;;;;6209731;28;92143;-96
2023/01/31 14:53:19;;;;;;;3.97;2.08;;;23.40;74.20;;;;;;6209412;28;94138;-96
2023/01/31 14:56:37;;;;;;;2.92;1.70;;;23.50;74.00;;;;;;6209052;28;94551;-96
2023/01/31 14:59:53;;;;;;;3.08;1.83;;;23.40;74.20;;;;;;6208135;28;93367;-96
2023/01/31 15:03:08;;;;;;;3.60;2.10;;;23.40;74.20;;;;;;6209317;28;94548;-96
2023/01/31 15:06:28;;;;;;;2.17;1.60;;;23.40;73.90;;;;;;6210177;28;92220;-96
2023/01/31 15:09:39;;;;;;;5.03;1.92;;;23.50;73.90;;;;;;6209311;28;92732;-96
2023/01/31 15:13:02;;;;;;;3.50;2.00;;;23.40;73.80;;;;;;6208922;28;93080;-96
2023/01/31 15:16:07;;;;;;;3.83;1.80;;;23.50;73.70;;;;;;6204895;28;96352;-96
2023/01/31 15:19:14;;;;;;;2.92;1.77;;;23.50;73.70;;;;;;6207417;28;94455;-95
2023/01/31 15:22:18;;;;;;;4.00;1.80;;;23.50;73.60;;;;;;6208146;28;92891;-96
2023/01/31 15:25:29;;;;;;;4.05;1.73;;;23.50;73.50;;;;;;6208162;28;94310;-96
2023/01/31 15:28:36;;;;;;;2.70;1.70;;;23.50;73.50;;;;;;6208743;28;93155;-95
2023/01/31 15:31:43;;;;;;;3.28;1.90;;;23.50;73.30;;;;;;6208573;28;94946;-96
2023/01/31 15:34:53;;;;;;;2.17;1.50;;;23.50;73.30;;;;;;6207755;28;94443;-96
2023/01/31 15:38:00;;;;;;;2.65;1.60;;;23.50;73.20;;;;;;6173072;28;93553;-96
2023/01/31 15:41:19;;;;;;;3.10;1.92;;;23.50;73.20;;;;;;6208879;28;91349;-96
2023/01/31 15:44:22;;;;;;;3.85;1.63;;;23.50;73.10;;;;;;6208886;28;94457;-96
2023/01/31 15:47:24;;;;;;;3.20;1.70;;;23.50;73.00;;;;;;6208252;28;94195;-96
2023/01/31 15:50:30;;;;;;;2.55;1.60;;;23.50;72.90;;;;;;6207442;28;95834;-96
2023/01/31 15:53:32;;;;;;;2.17;1.48;;;23.50;72.80;;;;;;6208181;28;92845;-96
2023/01/31 15:56:42;;;;;;;3.00;1.70;;;23.60;72.80;;;;;;6208413;28;95872;-96
2023/01/31 15:59:47;;;;;;;3.03;1.65;;;23.60;72.70;;;;;;6208263;28;94044;-96
2023/01/31 16:02:59;;;;;;;2.67;1.73;;;23.50;72.60;;;;;;6208707;28;93297;-96
2023/01/31 16:06:03;;;;;;;1.67;1.40;;;23.50;72.50;;;;;;6207868;28;93519;-96
2023/01/31 16:09:09;;;;;;;2.10;1.60;;;23.50;72.60;;;;;;6207577;28;94210;-96
2023/01/31 16:12:12;;;;;;;2.45;1.55;;;23.50;73.50;;;;;;6208111;28;91375;-96
2023/01/31 16:15:19;;;;;;;2.22;1.67;;;23.50;72.50;;;;;;6207819;28;92834;-96
2023/01/31 16:18:21;;;;;;;2.30;1.58;;;23.50;72.40;;;;;;6207482;28;93433;-95
2023/01/31 16:21:29;;;;;;;2.25;1.50;;;23.50;72.40;;;;;;6207012;28;94752;-96
2023/01/31 16:24:32;;;;;;;2.92;1.65;;;23.50;72.40;;;;;;6207997;28;96349;-95
2023/01/31 16:27:40;;;;;;;2.78;1.50;;;23.50;72.40;;;;;;6207773;28;94422;-96
2023/01/31 16:30:43;;;;;;;2.58;1.48;;;23.50;72.50;;;;;;6207951;28;94135;-96
2023/01/31 16:33:49;;;;;;;2.15;1.25;;;23.50;72.30;;;;;;6208243;28;93394;-96
2023/01/31 16:36:58;;;;;;;3.28;1.60;;;23.50;72.20;;;;;;6208201;28;93002;-96
2023/01/31 16:40:06;;;;;;;1.92;1.50;;;23.50;72.00;;;;;;6208394;28;94173;-95
2023/01/31 16:43:12;;;;;;;2.38;1.70;;;23.60;72.00;;;;;;6208270;28;91931;-96
2023/01/31 16:46:21;;;;;;;2.75;1.30;;;23.60;72.00;;;;;;6211568;28;93029;-96
2023/01/31 16:49:25;;;;;;;2.10;1.33;;;23.50;71.80;;;;;;6210731;28;94845;-96
2023/01/31 16:52:31;;;;;;;2.42;1.63;;;23.50;72.00;;;;;;6207201;28;94963;-94
2023/01/31 16:55:37;;;;;;;3.17;1.60;;;23.60;71.90;;;;;;6206715;28;93972;-96
2023/01/31 16:58:48;;;;;;;2.35;1.40;;;23.50;71.90;;;;;;6207176;28;92453;-96
2023/01/31 17:02:03;;;;;;;2.40;1.50;;;23.50;71.60;;;;;;6207532;28;94761;-96
2023/01/31 17:05:19;;;;;;;3.78;1.58;;;23.60;71.60;;;;;;6207393;28;93547;-96
2023/01/31 17:08:24;;;;;;;1.80;1.30;;;23.50;71.60;;;;;;6207370;28;93930;-96
2023/01/31 17:11:26;;;;;;;2.38;1.60;;;23.50;72.40;;;;;;6209601;28;93274;-96
2023/01/31 17:14:31;;;;;;;3.28;1.60;;;23.50;71.50;;;;;;6172196;28;93865;-96
2023/01/31 17:17:36;;;;;;;3.30;1.50;;;23.50;71.50;;;;;;6205993;28;94994;-96
2023/01/31 17:20:41;;;;;;;2.65;1.60;;;23.60;71.40;;;;;;6207803;28;94387;-96
2023/01/31 17:23:45;;;;;;;3.50;1.40;;;23.60;71.40;;;;;;6212247;28;94302;-95
2023/01/31 17:26:48;;;;;;;3.25;1.42;;;23.50;71.50;;;;;;6214022;28;92314;-96
2023/01/31 17:29:51;;;;;;;2.90;1.50;;;23.60;71.50;;;;;;6213261;28;92986;-96
2023/01/31 17:32:55;;;;;;;1.73;1.38;;;23.50;71.40;;;;;;6214698;28;94380;-96
2023/01/31 17:35:58;;;;;;;3.67;1.58;;;23.50;71.50;;;;;;6211471;28;93056;-96
2023/01/31 17:39:06;;;;;;;3.25;1.58;;;23.50;71.40;;;;;;6211368;28;94470;-95
2023/01/31 17:42:18;;;;;;;2.85;1.75;;;23.50;71.30;;;;;;6212419;28;92734;-96
2023/01/31 17:45:21;;;;;;;3.40;1.80;;;23.50;70.40;;;;;;6212589;28;94116;-96
2023/01/31 17:48:24;;;;;;;2.17;1.80;;;23.50;69.10;;;;;;6210950;28;93196;-96
2023/01/31 17:51:27;;;;;;;2.60;1.73;;;23.60;68.20;;;;;;6210633;28;93619;-95
2023/01/31 17:54:32;;;;;;;3.40;1.77;;;23.60;67.50;;;;;;6210050;28;93248;-96
2023/01/31 17:57:35;;;;;;;2.40;1.80;;;23.60;67.70;;;;;;6211066;28;93183;-95
2023/01/31 18:00:38;;;;;;;2.67;1.63;;;23.60;68.10;;;;;;6210218;28;92122;-96
2023/01/31 18:03:42;;;;;;;2.92;1.70;;;23.60;68.20;;;;;;6210715;28;93206;-96
2023/01/31 18:06:45;;;;;;;2.35;1.42;;;23.50;68.40;;;;;;6211217;28;94935;-96
2023/01/31 18:09:51;;;;;;;2.67;1.50;;;23.60;68.60;;;;;;6210867;28;93305;-96
2023/01/31 18:12:54;;;;;;;2.05;1.40;;;23.60;68.80;;;;;;6211844;28;92401;-96
2023/01/31 18:16:06;;;;;;;3.53;1.70;;;23.60;69.10;;;;;;6212403;28;91543;-96
2023/01/31 18:19:13;;;;;;;3.35;1.63;;;23.60;69.30;;;;;;6209853;28;93604;-96
2023/01/31 18:22:17;;;;;;;2.05;1.60;;;23.60;69.30;;;;;;6211498;28;93376;-96
2023/01/31 18:25:24;;;;;;;1.88;1.60;;;23.60;69.50;;;;;;6210095;28;94485;-96
2023/01/31 18:28:29;;;;;;;2.15;1.60;;;23.60;69.60;;;;;;6210554;28;93186;-96
2023/01/31 18:31:32;;;;;;;3.38;1.52;;;23.60;69.60;;;;;;6210237;28;92317;-95
2023/01/31 18:34:40;;;;;;;3.63;1.52;;;23.60;69.60;;;;;;6213858;28;92404;-95
2023/01/31 18:37:47;;;;;;;3.60;1.90;;;23.60;69.80;;;;;;6210197;28;93302;-95
2023/01/31 18:40:53;;;;;;;2.10;1.60;;;23.60;69.90;;;;;;6208829;28;92192;-95
2023/01/31 18:43:56;;;;;;;4.15;1.70;;;23.60;70.00;;;;;;6209487;28;93561;-95
2023/01/31 18:47:01;;;;;;;4.22;1.83;;;23.70;69.90;;;;;;6210521;28;92286;-96
2023/01/31 18:50:05;;;;;;;2.60;1.60;;;23.70;69.80;;;;;;6209613;28;93036;-96
2023/01/31 18:53:19;;;;;;;2.60;1.60;;;23.60;69.90;;;;;;6210045;28;95220;-94
2023/01/31 18:56:29;;;;;;;3.50;1.77;;;23.70;69.80;;;;;;6210459;28;94444;-95
2023/01/31 18:59:38;;;;;;;2.90;1.60;;;23.70;70.10;;;;;;6209166;28;93194;-96
2023/01/31 19:02:41;;;;;;;2.92;1.67;;;23.70;70.00;;;;;;6209312;28;94595;-96
2023/01/31 19:05:45;;;;;;;2.47;1.60;;;23.70;70.10;;;;;;6209204;28;93016;-96
2023/01/31 19:08:50;;;;;;;2.38;1.50;;;23.70;69.90;;;;;;6209562;28;93244;-96
2023/01/31 19:11:58;;;;;;;2.40;1.60;;;23.70;69.80;;;;;;6206564;28;93158;-96
2023/01/31 19:15:01;;;;;;;2.58;1.30;;;23.70;69.80;;;;;;6209830;28;92282;-96
2023/01/31 19:18:05;;;;;;;1.55;1.40;;;23.70;69.80;;;;;;6209081;28;91769;-95
2023/01/31 19:21:16;;;;;;;3.45;1.60;;;23.70;69.90;;;;;;6208620;28;93020;-96
2023/01/31 19:24:20;;;;;;;1.95;1.50;;;23.70;70.00;;;;;;6209588;28;92500;-96
2023/01/31 19:27:39;;;;;;;2.45;1.70;;;23.70;69.90;;;;;;6207512;28;94515;-95
2023/01/31 19:30:42;;;;;;;2.20;1.38;;;23.70;69.50;;;;;;6206494;28;92629;-95
2023/01/31 19:33:49;;;;;;;2.72;1.50;;;23.70;69.40;;;;;;6208756;28;92311;-95
2023/01/31 19:36:52;;;;;;;2.28;1.40;;;23.70;69.40;;;;;;6208901;28;94362;-96
2023/01/31 19:39:58;;;;;;;2.55;1.60;;;23.70;69.40;;;;;;6208427;28;92269;-96
2023/01/31 19:43:03;;;;;;;2.03;1.50;;;23.70;69.10;;;;;;6209112;28;92062;-96
2023/01/31 19:46:08;;;;;;;2.05;1.50;;;23.70;68.90;;;;;;6208682;28;94462;-96
2023/01/31 19:49:11;;;;;;;2.42;1.83;;;23.70;68.80;;;;;;6209136;28;91600;-95
2023/01/31 19:52:16;;;;;;;3.20;1.73;;;23.70;68.90;;;;;;6209935;28;94306;-96
2023/01/31 19:55:24;;;;;;;7.55;2.00;;;23.70;69.20;;;;;;6210787;28;92020;-96
2023/01/31 19:58:31;;;;;;;6.43;1.75;;;23.70;69.60;;;;;;6189688;28;93300;-96
2023/01/31 20:01:34;;;;;;;5.90;2.10;;;23.70;69.90;;;;;;6208636;28;93358;-96
2023/01/31 20:04:37;;;;;;;5.50;1.80;;;23.70;70.10;;;;;;6208440;28;94492;-96
2023/01/31 20:07:43;;;;;;;3.35;1.67;;;23.70;70.10;;;;;;6209376;28;95808;-96
2023/01/31 20:10:50;;;;;;;4.55;2.08;;;23.70;70.10;;;;;;6208324;28;92317;-96
2023/01/31 20:13:57;;;;;;;5.10;1.80;;;23.70;70.10;;;;;;6206523;28;92810;-96
2023/01/31 20:17:01;;;;;;;3.97;2.08;;;23.70;70.00;;;;;;6209215;28;92131;-96
2023/01/31 20:20:05;;;;;;;3.50;1.77;;;23.70;70.00;;;;;;6208194;28;92556;-96
2023/01/31 20:23:09;;;;;;;3.72;1.77;;;23.70;70.00;;;;;;6209105;28;92171;-96
2023/01/31 20:26:13;;;;;;;2.72;1.55;;;23.70;70.00;;;;;;6210150;28;92308;-96
2023/01/31 20:29:20;;;;;;;5.22;2.20;;;23.70;69.90;;;;;;6207817;28;93280;-96
2023/01/31 20:32:24;;;;;;;4.88;1.80;;;23.70;69.80;;;;;;6211426;28;91696;-96
2023/01/31 20:35:27;;;;;;;4.13;1.77;;;23.70;69.80;;;;;;6211776;28;91849;-96
2023/01/31 20:38:30;;;;;;;4.93;1.83;;;23.70;69.80;;;;;;6211489;28;92228;-96
2023/01/31 20:41:33;;;;;;;4.07;1.50;;;23.70;69.70;;;;;;6212247;28;92042;-96
2023/01/31 20:44:49;;;;;;;3.25;1.70;;;23.80;69.80;;;;;;6211924;28;92107;-96
2023/01/31 20:47:54;;;;;;;3.17;1.80;;;23.70;69.60;;;;;;6214712;28;92327;-96
2023/01/31 20:51:00;;;;;;;3.15;1.60;;;23.70;69.60;;;;;;6216732;28;91440;-96
2023/01/31 20:54:06;;;;;;;3.28;1.52;;;23.70;69.60;;;;;;6214799;28;92206;-96
2023/01/31 20:57:09;;;;;;;3.30;1.52;;;23.70;69.60;;;;;;6214451;28;92451;-96
2023/01/31 21:00:15;;;;;;;1.75;1.40;;;23.70;69.60;;;;;;6218346;28;93415;-96
2023/01/31 21:03:19;;;;;;;2.85;1.58;;;23.80;69.60;;;;;;6219984;28;93460;-96
2023/01/31 21:06:25;;;;;;;2.70;1.60;;;23.70;69.50;;;;;;6216506;28;92496;-96
2023/01/31 21:09:29;;;;;;;2.42;1.50;;;23.70;69.40;;;;;;6215963;28;92061;-96
2023/01/31 21:12:32;;;;;;;3.88;1.50;;;23.80;69.40;;;;;;6215927;28;92495;-96
2023/01/31 21:15:36;;;;;;;2.25;1.60;;;23.80;69.40;;;;;;6217621;28;94852;-96
2023/01/31 21:18:42;;;;;;;2.15;1.40;;;23.80;69.30;;;;;;6219009;28;91890;-96
2023/01/31 21:21:47;;;;;;;1.48;1.25;;;23.70;69.30;;;;;;6217545;28;94149;-96
2023/01/31 21:24:51;;;;;;;2.80;1.58;;;23.70;69.30;;;;;;6196625;28;92408;-96
2023/01/31 21:27:56;;;;;;;2.88;1.60;;;23.70;69.10;;;;;;6215272;28;92444;-96
2023/01/31 21:31:01;;;;;;;2.53;1.70;;;23.80;69.30;;;;;;6211783;28;93106;-96
2023/01/31 21:34:05;;;;;;;2.97;1.90;;;23.70;69.30;;;;;;6214246;28;92474;-96
2023/01/31 21:37:08;;;;;;;5.07;2.00;;;23.70;69.10;;;;;;6213990;28;93419;-96
2023/01/31 21:40:11;;;;;;;2.35;2.10;;;23.80;69.10;;;;;;6213885;28;92103;-96
2023/01/31 21:43:12;;;;;;;3.75;2.70;;;23.70;69.10;;;;;;6213082;28;92219;-96
2023/01/31 21:46:17;;;;;;;3.65;2.67;;;23.70;69.00;;;;;;6213860;28;92335;-96
2023/01/31 21:49:22;;;;;;;7.95;3.10;;;23.70;69.00;;;;;;6213776;28;92305;-96
2023/01/31 21:52:24;;;;;;;3.97;3.42;;;23.70;69.00;;;;;;6215120;28;91525;-96
2023/01/31 21:55:29;;;;;;;4.78;3.63;;;23.60;68.90;;;;;;6214209;28;92095;-96